sensor_id;sensor_type;location;lat;lon;timestamp;P1;durP1;ratioP1;P2;durP2;ratioP2
21886;SDS011;11108;49.988;8.182;2023-02-21T00:01:51;3.20;;;1.57;;
21886;SDS011;11108;49.988;8.182;2023-02-21T00:04:35;1.83;;;1.33;;
21886;SDS011;11108;49.988;8.182;2023-02-21T00:07:19;3.07;;;1.57;;
21886;SDS011;11108;49.988;8.182;2023-02-21T00:10:04;2.27;;;1.50;;
21886;SDS011;11108;49.988;8.182;2023-02-21T00:12:48;2.20;;;1.60;;
21886;SDS011;11108;49.988;8.182;2023-02-21T00:15:32;2.17;;;2.00;;
21886;SDS011;11108;49.988;8.182;2023-02-21T00:18:16;3.27;;;2.00;;
21886;SDS011;11108;49.988;8.182;2023-02-21T00:20:59;1.63;;;1.53;;
21886;SDS011;11108;49.988;8.182;2023-02-21T00:23:44;1.73;;;1.63;;
21886;SDS011;11108;49.988;8.182;2023-02-21T00:26:28;1.60;;;1.50;;
21886;SDS011;11108;49.988;8.182;2023-02-21T00:29:11;1.80;;;1.70;;
21886;SDS011;11108;49.988;8.182;2023-02-21T00:31:55;2.20;;;1.63;;
21886;SDS011;11108;49.988;8.182;2023-02-21T00:34:39;2.53;;;1.57;;
21886;SDS011;11108;49.988;8.182;2023-02-21T00:37:23;1.60;;;1.50;;
21886;SDS011;11108;49.988;8.182;2023-02-21T00:40:09;1.60;;;1.50;;
21886;SDS011;11108;49.988;8.182;2023-02-21T00:42:54;1.97;;;1.43;;
21886;SDS011;11108;49.988;8.182;2023-02-21T00:45:38;1.63;;;1.53;;
21886;SDS011;11108;49.988;8.182;2023-02-21T00:48:22;1.47;;;1.37;;
21886;SDS011;11108;49.988;8.182;2023-02-21T00:51:06;2.10;;;1.90;;
21886;SDS011;11108;49.988;8.182;2023-02-21T00:53:50;3.87;;;1.60;;
21886;SDS011;11108;49.988;8.182;2023-02-21T00:56:34;1.70;;;1.60;;
21886;SDS011;11108;49.988;8.182;2023-02-21T00:59:17;2.03;;;1.30;;
21886;SDS011;11108;49.988;8.182;2023-02-21T01:02:01;2.00;;;1.43;;
21886;SDS011;11108;49.988;8.182;2023-02-21T01:04:45;8.30;;;1.50;;
21886;SDS011;11108;49.988;8.182;2023-02-21T01:07:29;2.07;;;1.40;;
21886;SDS011;11108;49.988;8.182;2023-02-21T01:10:13;1.40;;;1.30;;
21886;SDS011;11108;49.988;8.182;2023-02-21T01:12:57;1.70;;;1.60;;
21886;SDS011;11108;49.988;8.182;2023-02-21T01:15:41;1.70;;;1.40;;
21886;SDS011;11108;49.988;8.182;2023-02-21T01:18:25;1.80;;;1.40;;
21886;SDS011;11108;49.988;8.182;2023-02-21T01:21:12;3.00;;;2.10;;
21886;SDS011;11108;49.988;8.182;2023-02-21T01:23:56;1.50;;;1.43;;
21886;SDS011;11108;49.988;8.182;2023-02-21T01:26:40;1.47;;;1.37;;
21886;SDS011;11108;49.988;8.182;2023-02-21T01:29:24;2.33;;;1.80;;
21886;SDS011;11108;49.988;8.182;2023-02-21T01:32:08;1.60;;;1.50;;
21886;SDS011;11108;49.988;8.182;2023-02-21T01:34:52;1.90;;;1.77;;
21886;SDS011;11108;49.988;8.182;2023-02-21T01:37:36;2.10;;;1.60;;
21886;SDS011;11108;49.988;8.182;2023-02-21T01:40:22;2.53;;;1.60;;
21886;SDS011;11108;49.988;8.182;2023-02-21T01:43:15;1.27;;;1.27;;
21886;SDS011;11108;49.988;8.182;2023-02-21T01:46:00;2.20;;;1.77;;
21886;SDS011;11108;49.988;8.182;2023-02-21T01:48:44;1.83;;;1.50;;
21886;SDS011;11108;49.988;8.182;2023-02-21T01:51:30;1.60;;;1.50;;
21886;SDS011;11108;49.988;8.182;2023-02-21T01:54:16;2.20;;;1.50;;
21886;SDS011;11108;49.988;8.182;2023-02-21T01:57:00;1.77;;;1.53;;
21886;SDS011;11108;49.988;8.182;2023-02-21T01:59:44;1.97;;;1.47;;
21886;SDS011;11108;49.988;8.182;2023-02-21T02:05:31;1.40;;;1.30;;
21886;SDS011;11108;49.988;8.182;2023-02-21T02:08:16;1.40;;;1.40;;
21886;SDS011;11108;49.988;8.182;2023-02-21T02:11:03;2.00;;;1.83;;
21886;SDS011;11108;49.988;8.182;2023-02-21T02:13:57;1.33;;;1.23;;
21886;SDS011;11108;49.988;8.182;2023-02-21T02:16:34;1.30;;;1.20;;
21886;SDS011;11108;49.988;8.182;2023-02-21T02:19:19;1.40;;;1.37;;
21886;SDS011;11108;49.988;8.182;2023-02-21T02:24:27;1.53;;;1.43;;
21886;SDS011;11108;49.988;8.182;2023-02-21T02:29:50;1.57;;;1.47;;
21886;SDS011;11108;49.988;8.182;2023-02-21T02:35:02;2.00;;;1.63;;
21886;SDS011;11108;49.988;8.182;2023-02-21T02:37:36;1.77;;;1.67;;
21886;SDS011;11108;49.988;8.182;2023-02-21T02:42:37;1.47;;;1.37;;
21886;SDS011;11108;49.988;8.182;2023-02-21T02:45:07;1.60;;;1.50;;
21886;SDS011;11108;49.988;8.182;2023-02-21T02:47:35;1.97;;;1.63;;
21886;SDS011;11108;49.988;8.182;2023-02-21T02:50:01;1.30;;;1.20;;
21886;SDS011;11108;49.988;8.182;2023-02-21T02:52:27;1.57;;;1.47;;
21886;SDS011;11108;49.988;8.182;2023-02-21T02:55:20;1.40;;;1.30;;
21886;SDS011;11108;49.988;8.182;2023-02-21T02:57:45;1.57;;;1.40;;
21886;SDS011;11108;49.988;8.182;2023-02-21T03:00:13;1.67;;;1.50;;
21886;SDS011;11108;49.988;8.182;2023-02-21T03:02:49;1.83;;;1.63;;
21886;SDS011;11108;49.988;8.182;2023-02-21T03:05:27;2.50;;;1.43;;
21886;SDS011;11108;49.988;8.182;2023-02-21T03:08:08;1.60;;;1.50;;
21886;SDS011;11108;49.988;8.182;2023-02-21T03:10:41;2.13;;;1.60;;
21886;SDS011;11108;49.988;8.182;2023-02-21T03:16:04;1.60;;;1.50;;
21886;SDS011;11108;49.988;8.182;2023-02-21T03:18:35;1.20;;;1.17;;
21886;SDS011;11108;49.988;8.182;2023-02-21T03:21:03;1.03;;;1.00;;
21886;SDS011;11108;49.988;8.182;2023-02-21T03:23:30;1.37;;;1.27;;
21886;SDS011;11108;49.988;8.182;2023-02-21T03:25:57;1.37;;;1.30;;
21886;SDS011;11108;49.988;8.182;2023-02-21T03:28:24;1.40;;;1.30;;
21886;SDS011;11108;49.988;8.182;2023-02-21T03:30:50;1.37;;;1.30;;
21886;SDS011;11108;49.988;8.182;2023-02-21T03:33:17;1.40;;;1.30;;
21886;SDS011;11108;49.988;8.182;2023-02-21T03:35:42;1.53;;;1.43;;
21886;SDS011;11108;49.988;8.182;2023-02-21T03:38:07;1.27;;;1.27;;
21886;SDS011;11108;49.988;8.182;2023-02-21T03:40:33;1.97;;;1.37;;
21886;SDS011;11108;49.988;8.182;2023-02-21T03:43:00;1.47;;;1.37;;
21886;SDS011;11108;49.988;8.182;2023-02-21T03:45:25;1.40;;;1.33;;
21886;SDS011;11108;49.988;8.182;2023-02-21T03:47:50;1.47;;;1.30;;
21886;SDS011;11108;49.988;8.182;2023-02-21T03:50:16;1.00;;;1.00;;
21886;SDS011;11108;49.988;8.182;2023-02-21T03:52:41;1.50;;;1.40;;
21886;SDS011;11108;49.988;8.182;2023-02-21T03:55:07;1.40;;;1.30;;
21886;SDS011;11108;49.988;8.182;2023-02-21T03:57:32;1.30;;;1.20;;
21886;SDS011;11108;49.988;8.182;2023-02-21T03:59:58;1.43;;;1.20;;
21886;SDS011;11108;49.988;8.182;2023-02-21T04:02:23;1.10;;;1.10;;
21886;SDS011;11108;49.988;8.182;2023-02-21T04:04:48;1.30;;;1.20;;
21886;SDS011;11108;49.988;8.182;2023-02-21T04:07:14;1.20;;;1.20;;
21886;SDS011;11108;49.988;8.182;2023-02-21T04:09:39;1.57;;;1.47;;
21886;SDS011;11108;49.988;8.182;2023-02-21T04:12:05;1.30;;;1.20;;
21886;SDS011;11108;49.988;8.182;2023-02-21T04:14:30;1.37;;;1.30;;
21886;SDS011;11108;49.988;8.182;2023-02-21T04:16:56;1.30;;;1.30;;
21886;SDS011;11108;49.988;8.182;2023-02-21T04:19:21;1.47;;;1.37;;
21886;SDS011;11108;49.988;8.182;2023-02-21T04:21:46;1.53;;;1.43;;
21886;SDS011;11108;49.988;8.182;2023-02-21T04:24:11;1.30;;;1.20;;
21886;SDS011;11108;49.988;8.182;2023-02-21T04:26:37;1.10;;;1.10;;
21886;SDS011;11108;49.988;8.182;2023-02-21T04:29:02;1.20;;;1.20;;
21886;SDS011;11108;49.988;8.182;2023-02-21T04:31:28;1.90;;;1.20;;
21886;SDS011;11108;49.988;8.182;2023-02-21T04:33:53;1.33;;;1.23;;
21886;SDS011;11108;49.988;8.182;2023-02-21T04:36:18;1.40;;;1.30;;
21886;SDS011;11108;49.988;8.182;2023-02-21T04:38:43;1.30;;;1.30;;
21886;SDS011;11108;49.988;8.182;2023-02-21T04:41:08;1.20;;;1.10;;
21886;SDS011;11108;49.988;8.182;2023-02-21T04:43:34;1.53;;;1.43;;
21886;SDS011;11108;49.988;8.182;2023-02-21T04:45:59;1.30;;;1.20;;
21886;SDS011;11108;49.988;8.182;2023-02-21T04:48:24;1.20;;;1.20;;
21886;SDS011;11108;49.988;8.182;2023-02-21T04:50:50;1.20;;;1.20;;
21886;SDS011;11108;49.988;8.182;2023-02-21T04:53:15;1.10;;;1.07;;
21886;SDS011;11108;49.988;8.182;2023-02-21T04:55:40;1.60;;;1.50;;
21886;SDS011;11108;49.988;8.182;2023-02-21T04:58:05;1.27;;;1.20;;
21886;SDS011;11108;49.988;8.182;2023-02-21T05:00:30;1.10;;;1.10;;
21886;SDS011;11108;49.988;8.182;2023-02-21T05:02:56;1.43;;;1.10;;
21886;SDS011;11108;49.988;8.182;2023-02-21T05:05:21;1.03;;;1.03;;
21886;SDS011;11108;49.988;8.182;2023-02-21T05:07:46;1.37;;;1.30;;
21886;SDS011;11108;49.988;8.182;2023-02-21T05:10:13;1.30;;;1.20;;
21886;SDS011;11108;49.988;8.182;2023-02-21T05:12:38;1.37;;;1.27;;
21886;SDS011;11108;49.988;8.182;2023-02-21T05:15:04;1.97;;;1.80;;
21886;SDS011;11108;49.988;8.182;2023-02-21T05:17:29;1.27;;;1.07;;
21886;SDS011;11108;49.988;8.182;2023-02-21T05:19:55;1.03;;;1.03;;
21886;SDS011;11108;49.988;8.182;2023-02-21T05:22:20;1.07;;;1.07;;
21886;SDS011;11108;49.988;8.182;2023-02-21T05:24:45;1.53;;;1.47;;
21886;SDS011;11108;49.988;8.182;2023-02-21T05:27:13;1.00;;;1.00;;
21886;SDS011;11108;49.988;8.182;2023-02-21T05:29:39;0.80;;;0.80;;
21886;SDS011;11108;49.988;8.182;2023-02-21T05:32:04;1.20;;;1.10;;
21886;SDS011;11108;49.988;8.182;2023-02-21T05:34:29;1.20;;;1.20;;
21886;SDS011;11108;49.988;8.182;2023-02-21T05:36:55;1.10;;;1.10;;
21886;SDS011;11108;49.988;8.182;2023-02-21T05:39:20;1.47;;;1.10;;
21886;SDS011;11108;49.988;8.182;2023-02-21T05:41:46;1.43;;;1.30;;
21886;SDS011;11108;49.988;8.182;2023-02-21T05:44:11;0.93;;;0.93;;
21886;SDS011;11108;49.988;8.182;2023-02-21T05:46:36;1.50;;;1.40;;
21886;SDS011;11108;49.988;8.182;2023-02-21T05:49:02;1.33;;;1.23;;
21886;SDS011;11108;49.988;8.182;2023-02-21T05:51:32;1.40;;;1.30;;
21886;SDS011;11108;49.988;8.182;2023-02-21T05:53:58;1.30;;;1.20;;
21886;SDS011;11108;49.988;8.182;2023-02-21T05:56:23;1.40;;;1.30;;
21886;SDS011;11108;49.988;8.182;2023-02-21T05:58:48;1.03;;;1.00;;
21886;SDS011;11108;49.988;8.182;2023-02-21T06:01:13;1.07;;;1.07;;
21886;SDS011;11108;49.988;8.182;2023-02-21T06:03:39;1.20;;;1.17;;
21886;SDS011;11108;49.988;8.182;2023-02-21T06:06:04;1.30;;;1.20;;
21886;SDS011;11108;49.988;8.182;2023-02-21T06:08:29;1.20;;;1.10;;
21886;SDS011;11108;49.988;8.182;2023-02-21T06:10:55;1.83;;;1.40;;
21886;SDS011;11108;49.988;8.182;2023-02-21T06:13:20;1.47;;;1.30;;
21886;SDS011;11108;49.988;8.182;2023-02-21T06:15:45;1.20;;;1.00;;
21886;SDS011;11108;49.988;8.182;2023-02-21T06:18:14;1.60;;;1.50;;
21886;SDS011;11108;49.988;8.182;2023-02-21T06:20:39;1.17;;;1.13;;
21886;SDS011;11108;49.988;8.182;2023-02-21T06:23:05;1.40;;;1.20;;
21886;SDS011;11108;49.988;8.182;2023-02-21T06:25:30;1.10;;;1.10;;
21886;SDS011;11108;49.988;8.182;2023-02-21T06:27:55;1.23;;;1.13;;
21886;SDS011;11108;49.988;8.182;2023-02-21T06:30:20;1.17;;;1.10;;
21886;SDS011;11108;49.988;8.182;2023-02-21T06:32:45;1.70;;;1.60;;
21886;SDS011;11108;49.988;8.182;2023-02-21T06:35:11;2.53;;;1.63;;
21886;SDS011;11108;49.988;8.182;2023-02-21T06:37:36;1.23;;;1.13;;
21886;SDS011;11108;49.988;8.182;2023-02-21T06:40:02;1.23;;;1.20;;
21886;SDS011;11108;49.988;8.182;2023-02-21T06:42:28;1.70;;;1.60;;
21886;SDS011;11108;49.988;8.182;2023-02-21T06:44:54;2.10;;;1.47;;
21886;SDS011;11108;49.988;8.182;2023-02-21T06:47:19;1.50;;;1.03;;
21886;SDS011;11108;49.988;8.182;2023-02-21T06:49:44;1.10;;;1.00;;
21886;SDS011;11108;49.988;8.182;2023-02-21T06:52:09;2.03;;;1.40;;
21886;SDS011;11108;49.988;8.182;2023-02-21T06:54:35;1.23;;;1.20;;
21886;SDS011;11108;49.988;8.182;2023-02-21T06:57:00;1.90;;;1.30;;
21886;SDS011;11108;49.988;8.182;2023-02-21T06:59:28;1.60;;;1.50;;
21886;SDS011;11108;49.988;8.182;2023-02-21T07:01:54;1.50;;;1.40;;
21886;SDS011;11108;49.988;8.182;2023-02-21T07:04:19;1.37;;;1.37;;
21886;SDS011;11108;49.988;8.182;2023-02-21T07:06:45;2.03;;;1.50;;
21886;SDS011;11108;49.988;8.182;2023-02-21T07:09:10;2.27;;;1.40;;
21886;SDS011;11108;49.988;8.182;2023-02-21T07:11:35;2.13;;;1.27;;
21886;SDS011;11108;49.988;8.182;2023-02-21T07:14:00;1.60;;;1.50;;
21886;SDS011;11108;49.988;8.182;2023-02-21T07:16:26;1.80;;;1.30;;
21886;SDS011;11108;49.988;8.182;2023-02-21T07:18:51;0.97;;;0.97;;
21886;SDS011;11108;49.988;8.182;2023-02-21T07:21:17;1.93;;;1.30;;
21886;SDS011;11108;49.988;8.182;2023-02-21T07:23:43;1.17;;;0.90;;
21886;SDS011;11108;49.988;8.182;2023-02-21T07:26:08;2.13;;;1.07;;
21886;SDS011;11108;49.988;8.182;2023-02-21T07:28:33;1.60;;;1.50;;
21886;SDS011;11108;49.988;8.182;2023-02-21T07:30:59;1.57;;;1.07;;
21886;SDS011;11108;49.988;8.182;2023-02-21T07:33:24;1.33;;;1.23;;
21886;SDS011;11108;49.988;8.182;2023-02-21T07:35:49;1.20;;;1.20;;
21886;SDS011;11108;49.988;8.182;2023-02-21T07:38:27;1.37;;;1.30;;
21886;SDS011;11108;49.988;8.182;2023-02-21T07:40:54;1.80;;;1.57;;
21886;SDS011;11108;49.988;8.182;2023-02-21T07:43:19;1.50;;;1.40;;
21886;SDS011;11108;49.988;8.182;2023-02-21T07:45:44;1.73;;;1.20;;
21886;SDS011;11108;49.988;8.182;2023-02-21T07:48:09;8.67;;;1.93;;
21886;SDS011;11108;49.988;8.182;2023-02-21T07:50:38;2.70;;;1.80;;
21886;SDS011;11108;49.988;8.182;2023-02-21T07:53:03;1.40;;;1.30;;
21886;SDS011;11108;49.988;8.182;2023-02-21T07:55:28;3.43;;;1.30;;
21886;SDS011;11108;49.988;8.182;2023-02-21T07:57:53;5.47;;;1.50;;
21886;SDS011;11108;49.988;8.182;2023-02-21T08:00:19;1.47;;;1.20;;
21886;SDS011;11108;49.988;8.182;2023-02-21T08:02:47;1.60;;;1.13;;
21886;SDS011;11108;49.988;8.182;2023-02-21T08:05:15;2.27;;;1.40;;
21886;SDS011;11108;49.988;8.182;2023-02-21T08:07:41;2.53;;;1.23;;
21886;SDS011;11108;49.988;8.182;2023-02-21T08:10:06;1.43;;;1.33;;
21886;SDS011;11108;49.988;8.182;2023-02-21T08:12:32;2.57;;;1.30;;
21886;SDS011;11108;49.988;8.182;2023-02-21T08:14:57;3.77;;;1.60;;
21886;SDS011;11108;49.988;8.182;2023-02-21T08:17:22;9.33;;;2.77;;
21886;SDS011;11108;49.988;8.182;2023-02-21T08:19:47;13.13;;;3.57;;
21886;SDS011;11108;49.988;8.182;2023-02-21T08:22:13;14.30;;;4.33;;
21886;SDS011;11108;49.988;8.182;2023-02-21T08:24:38;14.20;;;4.23;;
21886;SDS011;11108;49.988;8.182;2023-02-21T08:27:03;17.87;;;4.87;;
21886;SDS011;11108;49.988;8.182;2023-02-21T08:29:29;20.10;;;4.90;;
21886;SDS011;11108;49.988;8.182;2023-02-21T08:31:54;18.87;;;4.53;;
21886;SDS011;11108;49.988;8.182;2023-02-21T08:34:19;14.83;;;3.97;;
21886;SDS011;11108;49.988;8.182;2023-02-21T08:36:44;10.83;;;3.87;;
21886;SDS011;11108;49.988;8.182;2023-02-21T08:39:10;13.17;;;4.23;;
21886;SDS011;11108;49.988;8.182;2023-02-21T08:41:39;13.70;;;3.83;;
21886;SDS011;11108;49.988;8.182;2023-02-21T08:44:05;11.10;;;3.43;;
21886;SDS011;11108;49.988;8.182;2023-02-21T08:46:30;11.00;;;3.43;;
21886;SDS011;11108;49.988;8.182;2023-02-21T08:48:55;9.73;;;3.37;;
21886;SDS011;11108;49.988;8.182;2023-02-21T08:51:27;12.47;;;3.77;;
21886;SDS011;11108;49.988;8.182;2023-02-21T08:53:52;14.00;;;3.97;;
21886;SDS011;11108;49.988;8.182;2023-02-21T08:56:19;8.30;;;3.20;;
21886;SDS011;11108;49.988;8.182;2023-02-21T08:58:44;14.37;;;3.40;;
21886;SDS011;11108;49.988;8.182;2023-02-21T09:01:09;9.20;;;3.07;;
21886;SDS011;11108;49.988;8.182;2023-02-21T09:03:34;6.13;;;3.00;;
21886;SDS011;11108;49.988;8.182;2023-02-21T09:06:00;7.03;;;2.83;;
21886;SDS011;11108;49.988;8.182;2023-02-21T09:08:27;12.10;;;2.83;;
21886;SDS011;11108;49.988;8.182;2023-02-21T09:10:54;4.13;;;3.00;;
21886;SDS011;11108;49.988;8.182;2023-02-21T09:13:24;4.20;;;2.77;;
21886;SDS011;11108;49.988;8.182;2023-02-21T09:15:49;6.07;;;2.87;;
21886;SDS011;11108;49.988;8.182;2023-02-21T09:18:14;4.23;;;2.80;;
21886;SDS011;11108;49.988;8.182;2023-02-21T09:20:40;5.90;;;2.27;;
21886;SDS011;11108;49.988;8.182;2023-02-21T09:23:06;5.07;;;2.60;;
21886;SDS011;11108;49.988;8.182;2023-02-21T09:25:31;5.73;;;2.50;;
21886;SDS011;11108;49.988;8.182;2023-02-21T09:27:56;4.93;;;2.00;;
21886;SDS011;11108;49.988;8.182;2023-02-21T09:30:24;4.40;;;2.53;;
21886;SDS011;11108;49.988;8.182;2023-02-21T09:32:50;4.60;;;2.00;;
21886;SDS011;11108;49.988;8.182;2023-02-21T09:35:16;2.33;;;2.00;;
21886;SDS011;11108;49.988;8.182;2023-02-21T09:37:42;3.93;;;2.50;;
21886;SDS011;11108;49.988;8.182;2023-02-21T09:42:48;6.30;;;2.50;;
21886;SDS011;11108;49.988;8.182;2023-02-21T09:45:14;2.07;;;1.87;;
21886;SDS011;11108;49.988;8.182;2023-02-21T09:47:40;3.73;;;2.17;;
21886;SDS011;11108;49.988;8.182;2023-02-21T09:50:06;6.13;;;2.00;;
21886;SDS011;11108;49.988;8.182;2023-02-21T09:52:35;3.73;;;2.00;;
21886;SDS011;11108;49.988;8.182;2023-02-21T09:55:04;4.13;;;2.00;;
21886;SDS011;11108;49.988;8.182;2023-02-21T09:57:32;5.43;;;1.97;;
21886;SDS011;11108;49.988;8.182;2023-02-21T09:59:58;4.03;;;1.80;;
21886;SDS011;11108;49.988;8.182;2023-02-21T10:02:29;3.77;;;1.80;;
21886;SDS011;11108;49.988;8.182;2023-02-21T10:05:05;4.00;;;1.90;;
21886;SDS011;11108;49.988;8.182;2023-02-21T10:20:38;1.97;;;1.80;;
21886;SDS011;11108;49.988;8.182;2023-02-21T10:23:28;2.23;;;1.50;;
21886;SDS011;11108;49.988;8.182;2023-02-21T10:25:52;2.00;;;1.80;;
21886;SDS011;11108;49.988;8.182;2023-02-21T10:28:21;2.47;;;2.20;;
21886;SDS011;11108;49.988;8.182;2023-02-21T10:30:47;3.20;;;2.10;;
21886;SDS011;11108;49.988;8.182;2023-02-21T10:33:13;4.03;;;1.90;;
21886;SDS011;11108;49.988;8.182;2023-02-21T10:35:38;1.93;;;1.83;;
21886;SDS011;11108;49.988;8.182;2023-02-21T10:38:15;2.93;;;1.77;;
21886;SDS011;11108;49.988;8.182;2023-02-21T10:40:43;2.33;;;1.50;;
21886;SDS011;11108;49.988;8.182;2023-02-21T10:43:20;2.50;;;1.67;;
21886;SDS011;11108;49.988;8.182;2023-02-21T10:45:49;2.37;;;1.90;;
21886;SDS011;11108;49.988;8.182;2023-02-21T10:48:17;1.90;;;1.37;;
21886;SDS011;11108;49.988;8.182;2023-02-21T10:51:03;4.50;;;1.60;;
21886;SDS011;11108;49.988;8.182;2023-02-21T10:53:32;2.00;;;1.60;;
21886;SDS011;11108;49.988;8.182;2023-02-21T10:58:53;6.50;;;1.70;;
21886;SDS011;11108;49.988;8.182;2023-02-21T11:01:29;2.87;;;1.53;;
21886;SDS011;11108;49.988;8.182;2023-02-21T11:03:56;3.77;;;1.60;;
21886;SDS011;11108;49.988;8.182;2023-02-21T11:06:27;5.00;;;1.90;;
21886;SDS011;11108;49.988;8.182;2023-02-21T11:08:56;3.80;;;1.87;;
21886;SDS011;11108;49.988;8.182;2023-02-21T11:16:42;3.33;;;1.93;;
21886;SDS011;11108;49.988;8.182;2023-02-21T11:19:09;4.00;;;1.63;;
21886;SDS011;11108;49.988;8.182;2023-02-21T11:21:36;5.17;;;1.50;;
21886;SDS011;11108;49.988;8.182;2023-02-21T11:24:02;3.83;;;1.60;;
21886;SDS011;11108;49.988;8.182;2023-02-21T11:26:34;4.17;;;1.63;;
21886;SDS011;11108;49.988;8.182;2023-02-21T11:29:06;6.43;;;2.87;;
21886;SDS011;11108;49.988;8.182;2023-02-21T11:31:32;3.07;;;1.90;;
21886;SDS011;11108;49.988;8.182;2023-02-21T11:33:59;3.67;;;2.00;;
21886;SDS011;11108;49.988;8.182;2023-02-21T11:36:28;3.17;;;2.23;;
21886;SDS011;11108;49.988;8.182;2023-02-21T11:38:59;4.47;;;2.20;;
21886;SDS011;11108;49.988;8.182;2023-02-21T11:41:28;3.50;;;2.30;;
21886;SDS011;11108;49.988;8.182;2023-02-21T11:43:54;2.30;;;1.90;;
21886;SDS011;11108;49.988;8.182;2023-02-21T11:46:29;1.87;;;1.77;;
21886;SDS011;11108;49.988;8.182;2023-02-21T11:54:02;2.23;;;1.80;;
21886;SDS011;11108;49.988;8.182;2023-02-21T11:56:34;2.27;;;2.07;;
21886;SDS011;11108;49.988;8.182;2023-02-21T11:59:07;2.63;;;1.80;;
21886;SDS011;11108;49.988;8.182;2023-02-21T12:01:39;2.80;;;1.77;;
21886;SDS011;11108;49.988;8.182;2023-02-21T12:14:34;4.93;;;1.70;;
21886;SDS011;11108;49.988;8.182;2023-02-21T12:17:06;2.60;;;2.00;;
21886;SDS011;11108;49.988;8.182;2023-02-21T12:27:09;2.03;;;1.80;;
21886;SDS011;11108;49.988;8.182;2023-02-21T12:29:45;2.67;;;1.70;;
21886;SDS011;11108;49.988;8.182;2023-02-21T12:37:41;2.37;;;1.70;;
21886;SDS011;11108;49.988;8.182;2023-02-21T12:40:25;2.20;;;1.77;;
21886;SDS011;11108;49.988;8.182;2023-02-21T12:50:57;2.17;;;1.80;;
21886;SDS011;11108;49.988;8.182;2023-02-21T12:53:25;2.20;;;1.40;;
21886;SDS011;11108;49.988;8.182;2023-02-21T12:55:54;1.57;;;1.47;;
21886;SDS011;11108;49.988;8.182;2023-02-21T12:58:30;1.70;;;1.60;;
21886;SDS011;11108;49.988;8.182;2023-02-21T13:01:07;2.07;;;1.20;;
21886;SDS011;11108;49.988;8.182;2023-02-21T13:11:19;2.23;;;1.80;;
21886;SDS011;11108;49.988;8.182;2023-02-21T13:13:46;4.90;;;1.83;;
21886;SDS011;11108;49.988;8.182;2023-02-21T13:16:11;2.60;;;1.70;;
21886;SDS011;11108;49.988;8.182;2023-02-21T13:18:38;1.37;;;1.37;;
21886;SDS011;11108;49.988;8.182;2023-02-21T13:23:49;2.07;;;1.50;;
21886;SDS011;11108;49.988;8.182;2023-02-21T13:26:39;1.80;;;1.70;;
21886;SDS011;11108;49.988;8.182;2023-02-21T13:29:12;3.50;;;1.50;;
21886;SDS011;11108;49.988;8.182;2023-02-21T13:31:37;1.80;;;1.60;;
21886;SDS011;11108;49.988;8.182;2023-02-21T13:34:07;1.93;;;1.53;;
21886;SDS011;11108;49.988;8.182;2023-02-21T13:41:35;1.73;;;1.57;;
21886;SDS011;11108;49.988;8.182;2023-02-21T13:44:03;1.97;;;1.40;;
21886;SDS011;11108;49.988;8.182;2023-02-21T13:51:50;1.63;;;1.53;;
21886;SDS011;11108;49.988;8.182;2023-02-21T13:54:23;2.07;;;1.50;;
21886;SDS011;11108;49.988;8.182;2023-02-21T13:56:49;2.60;;;1.50;;
21886;SDS011;11108;49.988;8.182;2023-02-21T13:59:29;2.20;;;1.97;;
21886;SDS011;11108;49.988;8.182;2023-02-21T14:04:57;1.80;;;1.70;;
21886;SDS011;11108;49.988;8.182;2023-02-21T14:10:11;2.23;;;1.63;;
21886;SDS011;11108;49.988;8.182;2023-02-21T14:12:42;3.23;;;2.03;;
21886;SDS011;11108;49.988;8.182;2023-02-21T14:15:07;2.43;;;1.80;;
21886;SDS011;11108;49.988;8.182;2023-02-21T14:17:32;3.07;;;1.50;;
21886;SDS011;11108;49.988;8.182;2023-02-21T14:20:00;3.13;;;1.67;;
21886;SDS011;11108;49.988;8.182;2023-02-21T14:22:27;2.60;;;1.80;;
21886;SDS011;11108;49.988;8.182;2023-02-21T14:25:07;14.37;;;7.97;;
21886;SDS011;11108;49.988;8.182;2023-02-21T14:27:33;10.63;;;7.40;;
21886;SDS011;11108;49.988;8.182;2023-02-21T14:32:37;14.53;;;9.60;;
21886;SDS011;11108;49.988;8.182;2023-02-21T14:35:22;16.57;;;9.83;;
21886;SDS011;11108;49.988;8.182;2023-02-21T14:37:59;12.83;;;8.83;;
21886;SDS011;11108;49.988;8.182;2023-02-21T14:43:08;13.77;;;8.70;;
21886;SDS011;11108;49.988;8.182;2023-02-21T15:01:39;10.37;;;5.73;;
21886;SDS011;11108;49.988;8.182;2023-02-21T15:04:20;9.33;;;5.60;;
21886;SDS011;11108;49.988;8.182;2023-02-21T15:07:01;11.00;;;7.03;;
21886;SDS011;11108;49.988;8.182;2023-02-21T15:09:31;11.33;;;6.60;;
21886;SDS011;11108;49.988;8.182;2023-02-21T15:11:56;7.83;;;6.00;;
21886;SDS011;11108;49.988;8.182;2023-02-21T15:14:24;10.47;;;6.17;;
21886;SDS011;11108;49.988;8.182;2023-02-21T15:19:22;8.63;;;5.50;;
21886;SDS011;11108;49.988;8.182;2023-02-21T15:21:51;8.73;;;5.40;;
21886;SDS011;11108;49.988;8.182;2023-02-21T15:24:29;10.37;;;5.37;;
21886;SDS011;11108;49.988;8.182;2023-02-21T15:27:07;8.03;;;5.20;;
21886;SDS011;11108;49.988;8.182;2023-02-21T15:29:32;7.53;;;5.80;;
21886;SDS011;11108;49.988;8.182;2023-02-21T15:31:57;6.67;;;4.77;;
21886;SDS011;11108;49.988;8.182;2023-02-21T15:34:40;9.27;;;4.77;;
21886;SDS011;11108;49.988;8.182;2023-02-21T15:37:13;9.60;;;5.17;;
21886;SDS011;11108;49.988;8.182;2023-02-21T15:39:41;6.70;;;4.47;;
21886;SDS011;11108;49.988;8.182;2023-02-21T15:42:10;6.97;;;4.23;;
21886;SDS011;11108;49.988;8.182;2023-02-21T15:44:39;6.53;;;4.53;;
21886;SDS011;11108;49.988;8.182;2023-02-21T15:49:32;7.22;;;4.07;;
21886;SDS011;11108;49.988;8.182;2023-02-21T15:52:00;7.53;;;3.90;;
21886;SDS011;11108;49.988;8.182;2023-02-21T15:54:27;6.70;;;3.70;;
21886;SDS011;11108;49.988;8.182;2023-02-21T15:57:25;7.53;;;4.20;;
21886;SDS011;11108;49.988;8.182;2023-02-21T15:59:44;7.93;;;4.30;;
21886;SDS011;11108;49.988;8.182;2023-02-21T16:02:20;6.93;;;4.07;;
21886;SDS011;11108;49.988;8.182;2023-02-21T16:04:47;8.20;;;4.03;;
21886;SDS011;11108;49.988;8.182;2023-02-21T16:07:26;3.93;;;3.17;;
21886;SDS011;11108;49.988;8.182;2023-02-21T16:09:57;4.27;;;3.87;;
21886;SDS011;11108;49.988;8.182;2023-02-21T16:12:34;7.20;;;4.40;;
21886;SDS011;11108;49.988;8.182;2023-02-21T16:15:21;5.67;;;3.30;;
21886;SDS011;11108;49.988;8.182;2023-02-21T16:17:50;8.20;;;3.90;;
21886;SDS011;11108;49.988;8.182;2023-02-21T16:20:17;6.07;;;3.30;;
21886;SDS011;11108;49.988;8.182;2023-02-21T16:22:47;6.43;;;3.23;;
21886;SDS011;11108;49.988;8.182;2023-02-21T16:27:38;4.77;;;3.13;;
21886;SDS011;11108;49.988;8.182;2023-02-21T16:30:04;6.93;;;3.33;;
21886;SDS011;11108;49.988;8.182;2023-02-21T16:32:30;5.97;;;3.00;;
21886;SDS011;11108;49.988;8.182;2023-02-21T16:34:56;4.07;;;2.70;;
21886;SDS011;11108;49.988;8.182;2023-02-21T16:37:21;4.03;;;3.13;;
21886;SDS011;11108;49.988;8.182;2023-02-21T16:39:47;6.50;;;3.10;;
21886;SDS011;11108;49.988;8.182;2023-02-21T16:42:12;3.97;;;3.47;;
21886;SDS011;11108;49.988;8.182;2023-02-21T16:44:38;9.60;;;3.30;;
21886;SDS011;11108;49.988;8.182;2023-02-21T16:47:03;6.53;;;3.43;;
21886;SDS011;11108;49.988;8.182;2023-02-21T16:49:29;6.37;;;3.60;;
21886;SDS011;11108;49.988;8.182;2023-02-21T16:51:54;4.00;;;2.87;;
21886;SDS011;11108;49.988;8.182;2023-02-21T16:54:20;6.07;;;2.87;;
21886;SDS011;11108;49.988;8.182;2023-02-21T16:56:45;4.03;;;2.90;;
21886;SDS011;11108;49.988;8.182;2023-02-21T16:59:15;5.97;;;3.33;;
21886;SDS011;11108;49.988;8.182;2023-02-21T17:01:41;5.90;;;2.90;;
21886;SDS011;11108;49.988;8.182;2023-02-21T17:04:14;4.03;;;3.30;;
21886;SDS011;11108;49.988;8.182;2023-02-21T17:06:40;7.00;;;3.70;;
21886;SDS011;11108;49.988;8.182;2023-02-21T17:09:05;5.97;;;3.50;;
21886;SDS011;11108;49.988;8.182;2023-02-21T17:11:30;3.57;;;2.83;;
21886;SDS011;11108;49.988;8.182;2023-02-21T17:13:55;4.87;;;2.47;;
21886;SDS011;11108;49.988;8.182;2023-02-21T17:16:21;7.30;;;2.93;;